createdAt,value
2022-08-19T00:00:07.781Z,7.81
2022-08-19T00:01:07.770Z,8.69
2022-08-19T00:02:07.776Z,8.11
2022-08-19T00:03:07.770Z,8.76
2022-08-19T00:05:07.779Z,7.59
2022-08-19T00:06:07.771Z,7.54
2022-08-19T00:09:07.780Z,8.39
2022-08-19T00:10:07.808Z,8.29
2022-08-19T00:11:07.780Z,7.12
2022-08-19T00:12:07.809Z,7.36
2022-08-19T00:13:07.790Z,6.22
2022-08-19T00:14:07.795Z,6.84
2022-08-19T00:15:07.801Z,6.46
2022-08-19T00:16:07.785Z,6.19
2022-08-19T00:17:07.807Z,6.43
2022-08-19T00:18:07.807Z,5.70
2022-08-19T00:20:07.833Z,5.06
2022-08-19T00:21:07.822Z,5.57
2022-08-19T00:22:07.807Z,5.27
2022-08-19T00:23:07.814Z,5.61
2022-08-19T00:26:07.835Z,6.05
2022-08-19T00:27:25.731Z,6.22
2022-08-19T00:31:07.879Z,6.04
2022-08-19T00:32:07.849Z,7.01
2022-08-19T00:33:07.851Z,6.67
2022-08-19T00:34:07.858Z,6.54
2022-08-19T00:35:07.848Z,6.93
2022-08-19T00:36:07.871Z,7.26
2022-08-19T00:37:07.853Z,6.91
2022-08-19T00:38:07.845Z,7.76
2022-08-19T00:39:07.863Z,7.51
2022-08-19T00:40:07.986Z,8.10
2022-08-19T00:41:07.861Z,7.76
2022-08-19T00:42:07.889Z,8.01
2022-08-19T00:43:07.865Z,6.97
2022-08-19T00:44:07.870Z,8.46
2022-08-19T00:45:07.888Z,8.18
2022-08-19T00:46:07.879Z,7.53
2022-08-19T00:47:07.870Z,8.63
2022-08-19T00:49:07.888Z,9.04
2022-08-19T00:50:07.889Z,8.55
2022-08-19T00:51:07.906Z,8.30
2022-08-19T00:52:07.907Z,9.03
2022-08-19T00:54:07.904Z,8.34
2022-08-19T00:55:07.904Z,9.46
2022-08-19T00:56:07.931Z,9.34
2022-08-19T00:57:07.915Z,9.59
2022-08-19T00:58:07.913Z,9.34
2022-08-19T00:59:07.897Z,9.63
2022-08-19T01:00:07.907Z,10.54
2022-08-19T01:01:07.945Z,9.83
2022-08-19T01:02:07.921Z,9.69
2022-08-19T01:03:07.937Z,9.30
2022-08-19T01:04:07.934Z,9.68
2022-08-19T01:05:07.927Z,10.36
2022-08-19T01:06:07.951Z,8.78
2022-08-19T01:07:07.944Z,9.30
2022-08-19T01:08:07.937Z,10.06
2022-08-19T01:09:07.923Z,10.01
2022-08-19T01:10:07.941Z,10.40
2022-08-19T01:11:07.943Z,10.90
2022-08-19T01:12:07.931Z,9.72
2022-08-19T01:13:07.940Z,9.19
2022-08-19T01:14:07.974Z,10.23
2022-08-19T01:15:07.973Z,10.50
2022-08-19T01:16:07.973Z,10.75
2022-08-19T01:17:07.969Z,9.95
2022-08-19T01:19:07.963Z,11.36
2022-08-19T01:21:08.006Z,9.57
2022-08-19T01:22:14.199Z,9.29
2022-08-19T01:23:07.977Z,10.12
2022-08-19T01:24:07.971Z,10.90
2022-08-19T01:25:12.857Z,10.41
2022-08-19T01:26:07.976Z,10.48
2022-08-19T01:27:07.974Z,11.09
2022-08-19T01:28:10.998Z,10.28
2022-08-19T01:29:07.984Z,10.49
2022-08-19T01:30:07.989Z,10.44
2022-08-19T01:32:07.987Z,9.89
2022-08-19T01:33:08.010Z,11.83
2022-08-19T01:35:08.007Z,11.72
2022-08-19T01:37:08.008Z,11.55
2022-08-19T01:38:08.013Z,11.96
2022-08-19T01:39:08.020Z,10.98
2022-08-19T01:40:09.512Z,11.46
2022-08-19T01:41:09.735Z,10.37
2022-08-19T01:42:08.009Z,11.99
2022-08-19T01:43:08.022Z,11.34
2022-08-19T01:44:18.575Z,11.99
2022-08-19T01:45:08.025Z,11.20
2022-08-19T01:47:08.041Z,10.45
2022-08-19T01:48:08.051Z,11.67
2022-08-19T01:49:08.062Z,11.32
2022-08-19T01:50:08.019Z,11.43
2022-08-19T01:51:08.049Z,11.35
2022-08-19T01:55:08.068Z,11.89
2022-08-19T01:58:08.070Z,12.16
2022-08-19T02:00:08.093Z,10.97
2022-08-19T02:02:08.085Z,11.46
2022-08-19T02:03:08.066Z,11.75
2022-08-19T02:04:08.081Z,12.46
2022-08-19T02:06:08.077Z,12.20
2022-08-19T02:09:08.106Z,11.88
2022-08-19T02:10:12.271Z,11.88
2022-08-19T02:11:08.080Z,12.61
2022-08-19T02:12:08.108Z,12.60
2022-08-19T02:13:08.104Z,13.91
2022-08-19T02:14:08.104Z,12.69
2022-08-19T02:15:08.119Z,12.61
2022-08-19T02:16:08.131Z,11.54
2022-08-19T02:17:08.104Z,12.16
2022-08-19T02:18:08.102Z,12.49
2022-08-19T02:19:08.110Z,12.44
2022-08-19T02:20:08.098Z,12.53
2022-08-19T02:23:13.648Z,12.26
2022-08-19T02:24:08.132Z,12.17
2022-08-19T02:25:08.130Z,11.27
2022-08-19T02:27:08.127Z,12.58
2022-08-19T02:28:08.139Z,12.46
2022-08-19T02:29:08.128Z,12.55
2022-08-19T02:32:08.169Z,13.51
2022-08-19T02:37:08.176Z,12.62
2022-08-19T02:41:08.180Z,13.23
2022-08-19T02:43:08.188Z,12.66
2022-08-19T02:44:26.437Z,13.55
2022-08-19T02:45:08.175Z,13.21
2022-08-19T02:48:14.847Z,12.91
2022-08-19T02:49:08.180Z,13.74
2022-08-19T02:50:08.182Z,13.41
2022-08-19T02:51:08.197Z,13.56
2022-08-19T02:52:08.196Z,13.74
2022-08-19T02:54:08.193Z,13.09
2022-08-19T02:56:08.207Z,12.41
2022-08-19T02:57:08.203Z,13.70
2022-08-19T02:58:08.343Z,13.17
2022-08-19T03:01:08.261Z,14.28
2022-08-19T03:02:08.220Z,12.58
2022-08-19T03:03:08.234Z,13.45
2022-08-19T03:04:08.224Z,13.17
2022-08-19T03:06:08.241Z,13.71
2022-08-19T03:07:11.062Z,12.75
2022-08-19T03:09:08.243Z,14.91
2022-08-19T03:10:08.240Z,14.33
2022-08-19T03:13:08.245Z,14.06
2022-08-19T03:14:08.235Z,13.76
2022-08-19T03:15:08.249Z,13.93
2022-08-19T03:16:08.268Z,15.78
2022-08-19T03:17:08.267Z,15.36
2022-08-19T03:18:08.250Z,13.85
2022-08-19T03:19:08.282Z,14.81
2022-08-19T03:20:08.267Z,14.49
2022-08-19T03:21:08.281Z,13.92
2022-08-19T03:28:08.294Z,13.58
2022-08-19T03:29:08.636Z,13.78
2022-08-19T03:30:08.371Z,14.11
2022-08-19T03:31:41.687Z,13.79
2022-08-19T03:32:08.303Z,14.79
2022-08-19T03:33:08.295Z,14.29
2022-08-19T03:34:08.288Z,13.28
2022-08-19T03:35:08.307Z,13.76
2022-08-19T03:36:08.294Z,14.23
2022-08-19T03:38:08.302Z,13.57
2022-08-19T03:39:08.315Z,13.60
2022-08-19T03:40:08.436Z,14.29
2022-08-19T03:42:38.298Z,13.22
2022-08-19T03:43:08.329Z,13.49
2022-08-19T03:45:08.359Z,13.43
2022-08-19T03:46:08.320Z,13.09
2022-08-19T03:47:08.327Z,13.84
2022-08-19T03:49:08.341Z,13.71
2022-08-19T03:51:08.354Z,13.29
2022-08-19T03:52:08.610Z,13.41
2022-08-19T03:53:08.355Z,13.11
2022-08-19T03:55:08.356Z,14.13
2022-08-19T03:58:08.363Z,15.49
2022-08-19T03:59:08.378Z,15.23
2022-08-19T04:00:13.467Z,15.28
2022-08-19T04:01:08.395Z,15.31
2022-08-19T04:03:08.379Z,14.72
2022-08-19T04:04:08.390Z,16.29
2022-08-19T04:05:08.383Z,17.59
2022-08-19T04:07:08.395Z,16.25
2022-08-19T04:08:13.305Z,16.16
2022-08-19T04:09:08.393Z,16.36
2022-08-19T04:10:10.604Z,15.99
2022-08-19T04:11:08.387Z,17.90
2022-08-19T04:12:08.407Z,19.20
2022-08-19T04:13:08.392Z,18.59
2022-08-19T04:14:08.409Z,17.59
2022-08-19T04:15:08.409Z,16.79
2022-08-19T04:18:08.417Z,17.78
2022-08-19T04:19:08.419Z,17.29
2022-08-19T04:21:08.405Z,15.89
2022-08-19T04:22:08.416Z,16.55
2022-08-19T04:23:08.430Z,16.44
2022-08-19T04:24:08.417Z,18.15
2022-08-19T04:25:08.447Z,17.40
2022-08-19T04:26:09.295Z,17.86
2022-08-19T04:27:08.443Z,16.32
2022-08-19T04:28:08.457Z,16.87
2022-08-19T04:29:12.300Z,18.02
2022-08-19T04:31:08.461Z,17.26
2022-08-19T04:32:09.798Z,17.53
2022-08-19T04:33:08.471Z,16.75
2022-08-19T04:34:08.559Z,17.23
2022-08-19T04:35:17.574Z,17.84
2022-08-19T04:36:08.466Z,17.50
2022-08-19T04:37:09.741Z,17.65
2022-08-19T04:38:08.470Z,17.23
2022-08-19T04:42:08.491Z,19.00
2022-08-19T04:43:08.503Z,18.54
2022-08-19T04:46:08.482Z,16.94
2022-08-19T04:47:11.210Z,18.94
2022-08-19T04:48:26.490Z,17.56
2022-08-19T04:49:12.946Z,19.25
2022-08-19T04:50:08.496Z,17.79
2022-08-19T04:51:08.495Z,17.79
2022-08-19T04:52:08.504Z,17.23
2022-08-19T04:53:08.503Z,16.64
2022-08-19T04:56:08.513Z,17.08
2022-08-19T04:57:08.623Z,16.21
2022-08-19T04:58:08.531Z,17.50
2022-08-19T05:00:08.515Z,15.74
2022-08-19T05:01:08.588Z,16.65
2022-08-19T05:02:08.554Z,15.89
2022-08-19T05:03:08.527Z,15.24
2022-08-19T05:04:08.544Z,14.31
2022-08-19T05:05:08.606Z,14.40
2022-08-19T05:06:08.545Z,13.05
2022-08-19T05:07:08.576Z,14.91
2022-08-19T05:08:08.546Z,14.86
2022-08-19T05:09:08.551Z,14.89
2022-08-19T05:11:08.572Z,13.58
2022-08-19T05:12:08.571Z,14.65
2022-08-19T05:13:08.566Z,13.72
2022-08-19T05:14:08.567Z,13.99
2022-08-19T05:15:08.560Z,13.63
2022-08-19T05:16:08.572Z,15.19
2022-08-19T05:19:08.590Z,13.37
2022-08-19T05:21:08.598Z,13.18
2022-08-19T05:22:08.588Z,14.07
2022-08-19T05:23:10.812Z,12.68
2022-08-19T05:24:08.597Z,13.28
2022-08-19T05:25:12.580Z,12.74
2022-08-19T05:26:08.600Z,12.69
2022-08-19T05:27:08.596Z,13.00
2022-08-19T05:30:08.621Z,11.68
2022-08-19T05:31:08.600Z,11.72
2022-08-19T05:32:08.611Z,11.90
2022-08-19T05:34:20.037Z,12.58
2022-08-19T05:35:08.725Z,13.38
2022-08-19T05:36:08.641Z,12.79
2022-08-19T05:37:08.618Z,12.90
2022-08-19T05:38:08.621Z,12.24
2022-08-19T05:42:08.650Z,12.26
2022-08-19T05:45:08.637Z,11.37
2022-08-19T05:47:08.646Z,11.56
2022-08-19T05:49:08.652Z,11.74
2022-08-19T05:50:08.662Z,11.31
2022-08-19T05:51:08.670Z,10.16
2022-08-19T05:52:08.677Z,11.04
2022-08-19T05:53:08.673Z,11.31
2022-08-19T05:54:08.690Z,12.04
2022-08-19T05:55:08.681Z,11.42
2022-08-19T05:57:08.681Z,12.37
2022-08-19T05:58:08.775Z,10.95
2022-08-19T05:59:08.673Z,12.42
2022-08-19T06:01:08.695Z,10.93
2022-08-19T06:02:08.724Z,10.69
2022-08-19T06:03:11.873Z,11.17
2022-08-19T06:04:08.680Z,10.75
2022-08-19T06:06:08.713Z,11.30
2022-08-19T06:07:12.150Z,11.42
2022-08-19T06:08:08.699Z,11.60
2022-08-19T06:09:08.735Z,11.28
2022-08-19T06:10:08.717Z,12.46
2022-08-19T06:11:08.756Z,11.84
2022-08-19T06:12:08.755Z,12.21
2022-08-19T06:14:08.717Z,11.58
2022-08-19T06:15:08.728Z,12.28
2022-08-19T06:16:08.737Z,12.12
2022-08-19T06:17:08.760Z,12.35
2022-08-19T06:18:08.755Z,11.36
2022-08-19T06:19:08.746Z,10.94
2022-08-19T06:20:08.754Z,12.23
2022-08-19T06:21:08.750Z,11.95
2022-08-19T06:22:08.728Z,11.28
2022-08-19T06:23:08.747Z,10.98
2022-08-19T06:24:08.755Z,12.38
2022-08-19T06:25:08.772Z,12.48
2022-08-19T06:26:08.764Z,11.50
2022-08-19T06:27:08.754Z,11.97
2022-08-19T06:28:15.064Z,11.64
2022-08-19T06:29:08.781Z,12.74
2022-08-19T06:30:08.774Z,12.54
2022-08-19T06:31:08.795Z,11.45
2022-08-19T06:32:08.787Z,12.01
2022-08-19T06:33:08.791Z,12.00
2022-08-19T06:34:08.776Z,11.72
2022-08-19T06:35:08.754Z,14.93
2022-08-19T06:36:08.824Z,14.17
2022-08-19T06:39:08.784Z,12.60
2022-08-19T06:40:08.826Z,12.80
2022-08-19T06:41:08.810Z,12.93
2022-08-19T06:42:10.317Z,13.12
2022-08-19T06:43:09.574Z,13.87
2022-08-19T06:44:08.812Z,12.81
2022-08-19T06:45:09.231Z,13.53
2022-08-19T06:46:08.829Z,13.51
2022-08-19T06:47:09.577Z,13.68
2022-08-19T06:48:08.816Z,12.36
2022-08-19T06:49:08.807Z,14.03
2022-08-19T06:50:08.813Z,13.50
2022-08-19T06:51:08.941Z,13.32
2022-08-19T06:53:08.842Z,12.80
2022-08-19T06:54:19.339Z,13.03
2022-08-19T06:55:08.823Z,13.62
2022-08-19T06:56:08.829Z,13.40
2022-08-19T06:57:08.838Z,13.21
2022-08-19T06:58:08.833Z,12.62
2022-08-19T06:59:08.836Z,12.41
2022-08-19T07:01:09.296Z,13.00
2022-08-19T07:02:08.961Z,12.61
2022-08-19T07:03:09.374Z,11.90
2022-08-19T07:04:08.862Z,12.90
2022-08-19T07:06:09.885Z,14.51
2022-08-19T07:07:19.723Z,12.95
2022-08-19T07:08:08.851Z,12.31
2022-08-19T07:10:08.858Z,12.37
2022-08-19T07:11:09.349Z,12.64
2022-08-19T07:12:08.861Z,11.69
2022-08-19T07:14:19.229Z,12.77
2022-08-19T07:15:08.870Z,12.28
2022-08-19T07:16:08.885Z,12.88
2022-08-19T07:17:08.876Z,11.64
2022-08-19T07:18:11.951Z,11.39
2022-08-19T07:19:11.566Z,11.05
2022-08-19T07:20:09.585Z,12.10
2022-08-19T07:22:08.906Z,10.76
2022-08-19T07:23:08.894Z,11.67
2022-08-19T07:24:08.908Z,12.96
2022-08-19T07:25:08.935Z,12.47
2022-08-19T07:26:08.916Z,10.01
2022-08-19T07:27:13.830Z,12.00
2022-08-19T07:28:08.912Z,11.84
2022-08-19T07:29:08.918Z,11.30
2022-08-19T07:30:12.151Z,11.01
2022-08-19T07:33:08.913Z,10.98
2022-08-19T07:34:08.981Z,11.74
2022-08-19T07:35:08.937Z,11.35
2022-08-19T07:36:08.937Z,11.40
2022-08-19T07:37:08.950Z,12.38
2022-08-19T07:38:08.941Z,12.58
2022-08-19T07:39:08.959Z,13.28
2022-08-19T07:40:09.044Z,12.68
2022-08-19T07:41:08.944Z,13.00
2022-08-19T07:42:08.974Z,12.98
2022-08-19T07:43:12.318Z,11.42
2022-08-19T07:44:08.959Z,11.35
2022-08-19T07:47:18.326Z,12.95
2022-08-19T07:49:08.971Z,12.32
2022-08-19T07:50:08.985Z,12.23
2022-08-19T07:51:08.963Z,12.87
2022-08-19T07:52:08.996Z,12.76
2022-08-19T07:53:08.965Z,13.76
2022-08-19T07:55:11.473Z,12.76
2022-08-19T07:56:08.982Z,12.83
2022-08-19T07:57:09.015Z,13.28
2022-08-19T07:58:08.996Z,12.15
2022-08-19T07:59:09.007Z,12.50
2022-08-19T08:00:09.003Z,12.95
2022-08-19T08:01:08.990Z,12.82
2022-08-19T08:03:09.015Z,13.53
2022-08-19T08:04:09.042Z,13.11
2022-08-19T08:05:09.007Z,13.75
2022-08-19T08:06:09.036Z,12.51
2022-08-19T08:07:09.038Z,13.41
2022-08-19T08:08:09.033Z,13.38
2022-08-19T08:09:09.060Z,13.31
2022-08-19T08:10:12.631Z,13.27
2022-08-19T08:11:09.035Z,13.77
2022-08-19T08:12:32.517Z,13.27
2022-08-19T08:13:11.077Z,12.37
2022-08-19T08:14:09.056Z,12.93
2022-08-19T08:15:09.030Z,13.54
2022-08-19T08:16:10.287Z,13.32
2022-08-19T08:17:11.011Z,12.81
2022-08-19T08:19:25.799Z,13.22
2022-08-19T08:20:09.048Z,13.77
2022-08-19T08:21:09.049Z,14.63
2022-08-19T08:23:09.047Z,14.07
2022-08-19T08:25:09.091Z,15.04
2022-08-19T08:26:09.073Z,15.16
2022-08-19T08:27:11.433Z,14.46
2022-08-19T08:28:09.067Z,15.56
2022-08-19T08:29:12.460Z,15.77
2022-08-19T08:32:14.800Z,14.80
2022-08-19T08:33:09.118Z,15.51
2022-08-19T08:36:09.110Z,14.74
2022-08-19T08:37:09.115Z,15.20
2022-08-19T08:38:09.097Z,14.95
2022-08-19T08:39:09.085Z,14.36
2022-08-19T08:40:12.969Z,16.81
2022-08-19T08:41:09.109Z,15.36
2022-08-19T08:42:10.228Z,16.71
2022-08-19T08:43:11.187Z,16.11
2022-08-19T08:45:09.118Z,16.16
2022-08-19T08:47:09.114Z,16.93
2022-08-19T08:48:22.436Z,16.33
2022-08-19T08:49:09.615Z,17.20
2022-08-19T08:50:09.113Z,17.15
2022-08-19T08:51:09.305Z,17.44
2022-08-19T08:53:09.112Z,15.49
2022-08-19T08:54:09.755Z,16.96
2022-08-19T08:55:10.109Z,16.04
2022-08-19T08:56:09.134Z,17.42
2022-08-19T08:57:09.129Z,17.58
2022-08-19T08:58:09.159Z,17.62
2022-08-19T08:59:09.151Z,17.39
2022-08-19T09:00:15.684Z,16.54
2022-08-19T09:01:09.158Z,17.53
2022-08-19T09:02:09.149Z,18.13
2022-08-19T09:03:09.143Z,17.15
2022-08-19T09:04:09.159Z,17.72
2022-08-19T09:05:09.158Z,16.94
2022-08-19T09:06:11.837Z,17.93
2022-08-19T09:07:18.422Z,17.34
2022-08-19T09:08:09.180Z,17.96
2022-08-19T09:09:12.186Z,16.79
2022-08-19T09:10:09.160Z,16.65
2022-08-19T09:11:09.171Z,17.64
2022-08-19T09:12:09.181Z,18.13
2022-08-19T09:13:09.643Z,19.07
2022-08-19T09:14:19.174Z,19.23
2022-08-19T09:15:09.174Z,18.44
2022-08-19T09:16:09.199Z,19.02
2022-08-19T09:17:09.179Z,18.33
2022-08-19T09:19:09.187Z,19.24
2022-08-19T09:20:09.397Z,20.04
2022-08-19T09:21:09.193Z,20.08
2022-08-19T09:22:09.185Z,21.37
2022-08-19T09:23:09.199Z,20.52
2022-08-19T09:25:09.192Z,20.15
2022-08-19T09:26:09.204Z,20.05
2022-08-19T09:27:18.273Z,20.58
2022-08-19T09:28:20.611Z,18.79
2022-08-19T09:31:09.266Z,19.71
2022-08-19T09:32:26.079Z,20.37
2022-08-19T09:34:09.239Z,20.52
2022-08-19T09:35:09.238Z,21.41
2022-08-19T09:36:09.269Z,20.08
2022-08-19T09:37:09.232Z,21.51
2022-08-19T09:39:16.239Z,20.98
2022-08-19T09:40:09.345Z,19.83
2022-08-19T09:41:09.278Z,22.00
2022-08-19T09:42:16.682Z,20.22
2022-08-19T09:43:11.389Z,21.41
2022-08-19T09:44:09.239Z,20.67
2022-08-19T09:45:10.252Z,21.24
2022-08-19T09:46:09.256Z,21.41
2022-08-19T09:47:09.255Z,21.66
2022-08-19T09:49:09.277Z,21.47
2022-08-19T09:50:09.271Z,21.64
2022-08-19T09:51:11.855Z,22.49
2022-08-19T09:52:09.274Z,20.38
2022-08-19T09:53:09.279Z,20.60
2022-08-19T09:55:09.285Z,22.19
2022-08-19T09:56:09.338Z,20.87
2022-08-19T09:57:09.297Z,21.32
2022-08-19T09:58:09.284Z,21.95
2022-08-19T10:00:09.292Z,21.31
2022-08-19T10:01:09.343Z,20.94
2022-08-19T10:02:10.945Z,21.58
2022-08-19T10:03:09.315Z,22.80
2022-08-19T10:04:14.755Z,20.27
2022-08-19T10:05:09.302Z,21.41
2022-08-19T10:06:14.662Z,20.46
2022-08-19T10:07:09.302Z,20.75
2022-08-19T10:08:13.296Z,21.59
2022-08-19T10:09:09.327Z,22.31
2022-08-19T10:10:09.311Z,21.17
2022-08-19T10:11:27.219Z,21.03
2022-08-19T10:12:11.296Z,20.55
2022-08-19T10:13:09.325Z,22.56
2022-08-19T10:14:09.312Z,21.92
2022-08-19T10:16:09.334Z,21.16
2022-08-19T10:17:17.667Z,22.62
2022-08-19T10:18:09.345Z,21.92
2022-08-19T10:19:09.359Z,20.05
2022-08-19T10:20:09.332Z,22.27
2022-08-19T10:21:09.352Z,23.42
2022-08-19T10:22:10.071Z,21.58
2022-08-19T10:23:09.352Z,23.12
2022-08-19T10:24:09.617Z,21.37
2022-08-19T10:26:09.384Z,22.30
2022-08-19T10:27:09.352Z,22.95
2022-08-19T10:28:10.485Z,21.25
2022-08-19T10:29:09.591Z,22.50
2022-08-19T10:30:10.107Z,23.27
2022-08-19T10:31:09.410Z,22.08
2022-08-19T10:32:10.003Z,23.21
2022-08-19T10:33:11.172Z,22.43
2022-08-19T10:34:10.104Z,23.88
2022-08-19T10:36:09.397Z,22.67
2022-08-19T10:37:10.772Z,23.03
2022-08-19T10:39:09.395Z,23.57
2022-08-19T10:40:09.536Z,22.62
2022-08-19T10:41:09.396Z,22.37
2022-08-19T10:42:09.403Z,22.29
2022-08-19T10:43:09.401Z,24.22
2022-08-19T10:44:09.410Z,21.29
2022-08-19T10:45:09.394Z,23.50
2022-08-19T10:46:09.633Z,21.86
2022-08-19T10:47:24.396Z,22.36
2022-08-19T10:48:09.405Z,22.71
2022-08-19T10:50:11.808Z,21.39
2022-08-19T10:51:09.440Z,22.51
2022-08-19T10:52:10.319Z,23.01
2022-08-19T10:53:09.871Z,24.53
2022-08-19T10:54:12.516Z,23.03
2022-08-19T10:55:09.439Z,21.96
2022-08-19T10:56:09.476Z,23.44
2022-08-19T10:58:09.559Z,23.47
2022-08-19T10:59:09.467Z,23.44
2022-08-19T11:00:09.457Z,21.77
2022-08-19T11:01:09.509Z,22.79
2022-08-19T11:02:09.445Z,22.40
2022-08-19T11:04:09.453Z,22.11
2022-08-19T11:05:14.659Z,23.67
2022-08-19T11:06:09.478Z,22.90
2022-08-19T11:07:09.475Z,23.79
2022-08-19T11:08:22.777Z,22.65
2022-08-19T11:09:09.465Z,23.57
2022-08-19T11:10:13.024Z,24.10
2022-08-19T11:11:09.471Z,23.38
2022-08-19T11:12:09.475Z,23.32
2022-08-19T11:13:09.498Z,23.39
2022-08-19T11:14:09.491Z,24.10
2022-08-19T11:16:09.475Z,23.59
2022-08-19T11:17:09.495Z,24.53
2022-08-19T11:19:09.501Z,23.35
2022-08-19T11:20:09.502Z,23.15
2022-08-19T11:21:09.503Z,23.27
2022-08-19T11:22:09.508Z,22.68
2022-08-19T11:23:09.490Z,22.90
2022-08-19T11:24:09.512Z,22.99
2022-08-19T11:25:09.512Z,23.44
2022-08-19T11:26:09.510Z,22.91
2022-08-19T11:27:09.517Z,23.12
2022-08-19T11:28:09.513Z,23.49
2022-08-19T11:29:09.543Z,24.51
2022-08-19T11:30:12.813Z,22.26
2022-08-19T11:32:09.520Z,23.49
2022-08-19T11:33:09.539Z,24.25
2022-08-19T11:34:09.547Z,24.97
2022-08-19T11:35:09.609Z,24.87
2022-08-19T11:36:09.550Z,23.98
2022-08-19T11:37:09.568Z,25.04
2022-08-19T11:38:09.914Z,23.46
2022-08-19T11:39:09.558Z,24.01
2022-08-19T11:40:09.653Z,24.66
2022-08-19T11:41:09.563Z,24.92
2022-08-19T11:44:09.554Z,23.03
2022-08-19T11:45:09.570Z,23.88
2022-08-19T11:46:09.557Z,23.70
2022-08-19T11:47:09.597Z,24.12
2022-08-19T11:48:09.580Z,23.78
2022-08-19T11:49:13.678Z,24.96
2022-08-19T11:53:10.087Z,23.89
2022-08-19T11:54:09.609Z,24.35
2022-08-19T11:55:09.588Z,23.36
2022-08-19T11:58:15.024Z,25.15
2022-08-19T11:59:14.116Z,24.80
2022-08-19T12:00:09.651Z,26.53
2022-08-19T12:01:09.612Z,24.79
2022-08-19T12:02:09.602Z,26.25
2022-08-19T12:03:09.622Z,27.03
2022-08-19T12:04:09.682Z,23.77
2022-08-19T12:05:12.691Z,23.79
2022-08-19T12:06:09.604Z,23.31
2022-08-19T12:07:09.626Z,23.21
2022-08-19T12:08:09.645Z,23.01
2022-08-19T12:09:09.647Z,23.78
2022-08-19T12:10:10.649Z,24.95
2022-08-19T12:11:09.628Z,23.56
2022-08-19T12:12:09.650Z,24.49
2022-08-19T12:13:09.628Z,23.07
2022-08-19T12:14:09.641Z,23.53
2022-08-19T12:15:09.622Z,24.27
2022-08-19T12:16:09.665Z,21.96
2022-08-19T12:17:09.648Z,22.63
2022-08-19T12:18:09.639Z,24.34
2022-08-19T12:19:09.655Z,24.81
2022-08-19T12:20:09.661Z,22.48
2022-08-19T12:21:09.650Z,23.96
2022-08-19T12:22:09.643Z,22.73
2022-08-19T12:23:09.660Z,24.11
2022-08-19T12:24:09.654Z,22.84
2022-08-19T12:25:09.661Z,24.02
2022-08-19T12:26:09.661Z,24.03
2022-08-19T12:27:12.952Z,23.69
2022-08-19T12:29:09.699Z,24.14
2022-08-19T12:30:09.679Z,22.06
2022-08-19T12:31:09.678Z,23.80
2022-08-19T12:32:10.413Z,22.73
2022-08-19T12:33:09.679Z,23.90
2022-08-19T12:34:09.688Z,24.63
2022-08-19T12:35:09.714Z,24.34
2022-08-19T12:36:09.692Z,24.32
2022-08-19T12:37:09.709Z,22.39
2022-08-19T12:38:09.716Z,23.77
2022-08-19T12:39:10.690Z,22.47
2022-08-19T12:40:09.894Z,23.88
2022-08-19T12:41:09.714Z,24.00
2022-08-19T12:42:09.724Z,22.46
2022-08-19T12:43:09.722Z,24.39
2022-08-19T12:44:09.730Z,22.41
2022-08-19T12:45:09.724Z,23.60
2022-08-19T12:46:10.812Z,23.04
2022-08-19T12:47:09.726Z,22.34
2022-08-19T12:48:33.898Z,23.32
2022-08-19T12:51:09.738Z,24.45
2022-08-19T12:52:09.741Z,22.93
2022-08-19T12:53:09.761Z,22.24
2022-08-19T12:54:09.738Z,24.28
2022-08-19T12:55:09.742Z,22.42
2022-08-19T12:56:12.169Z,23.18
2022-08-19T12:57:09.738Z,23.79
2022-08-19T12:58:09.758Z,23.24
2022-08-19T12:59:09.747Z,23.67
2022-08-19T13:00:09.760Z,23.40
2022-08-19T13:02:09.769Z,21.28
2022-08-19T13:03:09.764Z,22.40
2022-08-19T13:04:09.762Z,22.80
2022-08-19T13:06:09.827Z,23.55
2022-08-19T13:07:09.786Z,22.71
2022-08-19T13:10:09.771Z,22.86
2022-08-19T13:11:09.799Z,22.77
2022-08-19T13:12:09.783Z,20.62
2022-08-19T13:13:09.773Z,24.18
2022-08-19T13:14:09.796Z,21.98
2022-08-19T13:16:09.801Z,22.26
2022-08-19T13:17:09.816Z,22.24
2022-08-19T13:20:09.820Z,23.40
2022-08-19T13:21:09.820Z,24.17
2022-08-19T13:22:13.282Z,23.46
2022-08-19T13:23:09.824Z,22.96
2022-08-19T13:24:09.802Z,22.57
2022-08-19T13:25:09.815Z,23.40
2022-08-19T13:26:09.822Z,22.51
2022-08-19T13:27:09.820Z,22.92
2022-08-19T13:28:09.825Z,24.42
2022-08-19T13:29:09.825Z,22.87
2022-08-19T13:30:09.843Z,23.12
2022-08-19T13:31:09.823Z,22.70
2022-08-19T13:34:09.854Z,21.04
2022-08-19T13:35:11.860Z,21.67
2022-08-19T13:37:09.832Z,21.58
2022-08-19T13:38:11.681Z,23.50
2022-08-19T13:39:09.853Z,20.82
2022-08-19T13:42:09.890Z,22.73
2022-08-19T13:43:13.693Z,23.50
2022-08-19T13:44:09.879Z,21.48
2022-08-19T13:45:09.873Z,23.95
2022-08-19T13:47:09.877Z,21.20
2022-08-19T13:49:09.891Z,22.51
2022-08-19T13:50:09.898Z,20.91
2022-08-19T13:51:09.878Z,22.06
2022-08-19T13:52:09.877Z,22.22
2022-08-19T13:53:09.892Z,23.25
2022-08-19T13:54:09.886Z,21.55
2022-08-19T13:55:09.915Z,24.20
2022-08-19T13:56:09.907Z,24.24
2022-08-19T13:57:09.899Z,25.01
2022-08-19T13:58:09.897Z,24.24
2022-08-19T13:59:09.897Z,23.90
2022-08-19T14:00:09.907Z,22.73
2022-08-19T14:01:10.007Z,23.11
2022-08-19T14:03:09.922Z,22.59
2022-08-19T14:04:09.930Z,22.01
2022-08-19T14:06:09.960Z,22.04
2022-08-19T14:07:09.938Z,21.45
2022-08-19T14:08:09.945Z,22.07
2022-08-19T14:09:09.920Z,21.46
2022-08-19T14:10:09.935Z,20.75
2022-08-19T14:11:09.945Z,22.82
2022-08-19T14:12:09.943Z,21.79
2022-08-19T14:13:09.932Z,19.72
2022-08-19T14:14:13.283Z,31.38
2022-08-19T14:15:09.961Z,23.75
2022-08-19T14:16:09.948Z,22.19
2022-08-19T14:17:09.955Z,22.05
2022-08-19T14:18:09.953Z,23.01
2022-08-19T14:19:09.954Z,21.82
2022-08-19T14:20:11.023Z,22.03
2022-08-19T14:21:09.972Z,22.36
2022-08-19T14:22:09.962Z,21.96
2022-08-19T14:23:09.961Z,23.05
2022-08-19T14:24:09.972Z,22.13
2022-08-19T14:25:09.973Z,23.13
2022-08-19T14:26:09.980Z,22.11
2022-08-19T14:27:09.981Z,21.77
2022-08-19T14:28:09.974Z,22.40
2022-08-19T14:29:09.981Z,21.55
2022-08-19T14:30:10.028Z,22.59
2022-08-19T14:31:09.982Z,22.16
2022-08-19T14:32:11.553Z,23.04
2022-08-19T14:33:09.998Z,22.36
2022-08-19T14:34:10.004Z,21.41
2022-08-19T14:35:10.016Z,23.54
2022-08-19T14:37:09.997Z,21.22
2022-08-19T14:38:10.005Z,21.70
2022-08-19T14:39:10.005Z,23.77
2022-08-19T14:40:10.049Z,22.55
2022-08-19T14:41:10.014Z,20.95
2022-08-19T14:42:11.499Z,21.40
2022-08-19T14:43:10.018Z,21.66
2022-08-19T14:44:10.032Z,22.49
2022-08-19T14:45:10.032Z,22.40
2022-08-19T14:47:10.135Z,21.05
2022-08-19T14:48:19.023Z,22.21
2022-08-19T14:49:10.032Z,22.44
2022-08-19T14:50:10.581Z,21.09
2022-08-19T14:51:10.032Z,20.60
2022-08-19T14:52:10.045Z,23.41
2022-08-19T14:54:10.045Z,21.66
2022-08-19T14:55:10.054Z,21.65
2022-08-19T14:56:10.083Z,23.99
2022-08-19T14:58:10.101Z,23.82
2022-08-19T14:59:10.072Z,22.58
2022-08-19T15:00:10.054Z,21.48
2022-08-19T15:01:10.057Z,21.74
2022-08-19T15:02:33.273Z,22.23
2022-08-19T15:03:10.095Z,20.39
2022-08-19T15:04:10.078Z,22.60
2022-08-19T15:05:10.080Z,21.18
2022-08-19T15:06:10.069Z,21.80
2022-08-19T15:07:10.102Z,21.24
2022-08-19T15:08:10.185Z,22.10
2022-08-19T15:09:10.087Z,22.55
2022-08-19T15:10:10.079Z,22.10
2022-08-19T15:11:10.109Z,21.01
2022-08-19T15:12:10.076Z,22.49
2022-08-19T15:13:10.115Z,22.16
2022-08-19T15:16:18.013Z,21.91
2022-08-19T15:17:10.113Z,23.00
2022-08-19T15:18:10.125Z,21.73
2022-08-19T15:19:10.107Z,23.02
2022-08-19T15:20:10.139Z,24.32
2022-08-19T15:21:10.113Z,25.69
2022-08-19T15:22:10.130Z,25.83
2022-08-19T15:23:10.128Z,23.99
2022-08-19T15:24:10.133Z,22.52
2022-08-19T15:25:10.140Z,22.12
2022-08-19T15:26:16.106Z,20.66
2022-08-19T15:28:10.135Z,22.30
2022-08-19T15:29:10.143Z,22.07
2022-08-19T15:30:10.144Z,22.16
2022-08-19T15:31:10.187Z,21.82
2022-08-19T15:32:10.143Z,22.19
2022-08-19T15:33:10.165Z,21.27
2022-08-19T15:34:10.145Z,22.23
2022-08-19T15:35:10.184Z,22.09
2022-08-19T15:36:10.153Z,21.89
2022-08-19T15:37:10.145Z,21.79
2022-08-19T15:38:10.179Z,21.04
2022-08-19T15:39:10.188Z,22.30
2022-08-19T15:40:10.228Z,23.33
2022-08-19T15:41:10.174Z,20.37
2022-08-19T15:42:10.178Z,21.45
2022-08-19T15:43:10.180Z,22.18
2022-08-19T15:44:10.164Z,20.65
2022-08-19T15:45:10.224Z,21.24
2022-08-19T15:46:10.193Z,24.95
2022-08-19T15:47:10.180Z,23.71